createdAt,value
2019-05-07T00:00:46.935Z,25.26
2019-05-07T00:01:46.927Z,25.26
2019-05-07T00:02:46.908Z,25.30
2019-05-07T00:03:46.908Z,25.34
2019-05-07T00:04:46.920Z,25.26
2019-05-07T00:05:46.910Z,25.30
2019-05-07T00:06:46.879Z,25.24
2019-05-07T00:07:46.911Z,25.29
2019-05-07T00:08:46.888Z,25.22
2019-05-07T00:09:46.891Z,25.22
2019-05-07T00:10:46.886Z,25.16
2019-05-07T00:11:46.883Z,25.14
2019-05-07T00:12:46.876Z,25.09
2019-05-07T00:13:46.864Z,25.11
2019-05-07T00:14:58.139Z,25.11
2019-05-07T00:15:46.842Z,25.22
2019-05-07T00:16:46.828Z,25.09
2019-05-07T00:17:46.854Z,25.14
2019-05-07T00:18:46.830Z,25.09
2019-05-07T00:19:46.817Z,25.11
2019-05-07T00:20:46.819Z,25.17
2019-05-07T00:21:46.807Z,25.05
2019-05-07T00:22:46.855Z,24.90
2019-05-07T00:23:46.786Z,24.90
2019-05-07T00:24:46.801Z,25.04
2019-05-07T00:25:46.824Z,24.89
2019-05-07T00:26:46.789Z,24.86
2019-05-07T00:27:46.815Z,24.89
2019-05-07T00:28:46.771Z,24.83
2019-05-07T00:29:46.773Z,24.87
2019-05-07T00:30:46.777Z,24.80
2019-05-07T00:31:46.753Z,24.87
2019-05-07T00:32:46.740Z,24.89
2019-05-07T00:33:46.771Z,24.77
2019-05-07T00:34:46.727Z,24.86
2019-05-07T00:35:46.730Z,24.77
2019-05-07T00:36:46.747Z,24.79
2019-05-07T00:37:46.734Z,24.74
2019-05-07T00:38:46.733Z,24.71
2019-05-07T00:39:46.727Z,24.71
2019-05-07T00:40:46.716Z,24.75
2019-05-07T00:41:46.704Z,24.77
2019-05-07T00:42:46.760Z,24.75
2019-05-07T00:43:46.717Z,24.79
2019-05-07T00:44:46.679Z,24.74
2019-05-07T00:45:46.705Z,24.82
2019-05-07T00:46:46.695Z,24.80
2019-05-07T00:47:46.668Z,24.80
2019-05-07T00:48:46.663Z,24.84
2019-05-07T00:49:46.685Z,24.87
2019-05-07T00:50:46.647Z,24.84
2019-05-07T00:51:46.660Z,24.84
2019-05-07T00:52:46.654Z,24.82
2019-05-07T00:53:46.669Z,24.83
2019-05-07T00:54:46.675Z,24.87
2019-05-07T00:55:46.651Z,24.77
2019-05-07T00:56:46.612Z,24.77
2019-05-07T00:57:46.663Z,24.75
2019-05-07T00:58:46.616Z,24.80
2019-05-07T00:59:46.612Z,24.87
2019-05-07T01:00:46.615Z,24.80
2019-05-07T01:01:46.579Z,24.80
2019-05-07T01:02:46.576Z,24.80
2019-05-07T01:03:46.635Z,24.77
2019-05-07T01:04:46.578Z,24.70
2019-05-07T01:05:46.584Z,24.75
2019-05-07T01:06:46.620Z,24.74
2019-05-07T01:07:46.560Z,24.75
2019-05-07T01:08:46.581Z,24.68
2019-05-07T01:09:46.560Z,24.75
2019-05-07T01:10:46.544Z,24.79
2019-05-07T01:11:46.532Z,24.71
2019-05-07T01:12:46.549Z,24.70
2019-05-07T01:13:46.523Z,24.83
2019-05-07T01:14:46.569Z,24.74
2019-05-07T01:15:46.537Z,24.70
2019-05-07T01:16:46.501Z,24.63
2019-05-07T01:17:46.497Z,24.64
2019-05-07T01:18:46.495Z,24.71
2019-05-07T01:19:46.509Z,24.61
2019-05-07T01:20:46.489Z,24.63
2019-05-07T01:21:46.478Z,24.63
2019-05-07T01:22:46.471Z,24.51
2019-05-07T01:23:46.449Z,24.51
2019-05-07T01:24:46.462Z,24.59
2019-05-07T01:25:46.469Z,24.63
2019-05-07T01:26:46.441Z,24.61
2019-05-07T01:27:46.495Z,24.70
2019-05-07T01:28:46.461Z,24.63
2019-05-07T01:29:46.433Z,24.56
2019-05-07T01:30:46.414Z,24.61
2019-05-07T01:31:46.401Z,24.51
2019-05-07T01:32:46.462Z,24.55
2019-05-07T01:33:46.417Z,24.53
2019-05-07T01:34:46.384Z,24.53
2019-05-07T01:35:46.412Z,24.60
2019-05-07T01:36:46.401Z,24.52
2019-05-07T01:37:46.379Z,24.60
2019-05-07T01:38:46.372Z,24.60
2019-05-07T01:39:46.369Z,24.59
2019-05-07T01:40:46.376Z,24.61
2019-05-07T01:41:46.367Z,24.63
2019-05-07T01:42:46.397Z,24.59
2019-05-07T01:43:46.359Z,24.71
2019-05-07T01:44:46.356Z,24.77
2019-05-07T01:45:49.584Z,24.64
2019-05-07T01:46:46.331Z,24.64
2019-05-07T01:47:46.337Z,24.49
2019-05-07T01:48:46.336Z,24.66
2019-05-07T01:49:46.307Z,24.66
2019-05-07T01:50:46.302Z,24.56
2019-05-07T01:51:46.294Z,24.51
2019-05-07T01:52:46.285Z,24.63
2019-05-07T01:53:46.290Z,24.63
2019-05-07T01:54:47.465Z,24.51
2019-05-07T01:55:46.299Z,24.66
2019-05-07T01:56:46.277Z,24.63
2019-05-07T01:57:46.266Z,24.68
2019-05-07T01:58:46.251Z,24.60
2019-05-07T01:59:46.252Z,24.68
2019-05-07T02:00:46.256Z,24.64
2019-05-07T02:01:46.282Z,24.70
2019-05-07T02:02:46.280Z,24.59
2019-05-07T02:03:46.270Z,24.60
2019-05-07T02:04:46.238Z,24.64
2019-05-07T02:05:46.233Z,24.67
2019-05-07T02:06:46.219Z,24.55
2019-05-07T02:07:46.196Z,24.59
2019-05-07T02:08:46.233Z,24.56
2019-05-07T02:09:46.236Z,24.61
2019-05-07T02:10:46.176Z,24.53
2019-05-07T02:11:46.198Z,24.59
2019-05-07T02:12:46.244Z,24.66
2019-05-07T02:13:46.158Z,24.63
2019-05-07T02:14:46.149Z,24.64
2019-05-07T02:15:57.198Z,24.61
2019-05-07T02:16:46.169Z,24.60
2019-05-07T02:17:46.157Z,24.61
2019-05-07T02:18:46.143Z,24.55
2019-05-07T02:19:46.156Z,24.46
2019-05-07T02:20:46.127Z,24.51
2019-05-07T02:21:46.130Z,24.45
2019-05-07T02:22:46.127Z,24.44
2019-05-07T02:23:46.146Z,24.34
2019-05-07T02:24:46.111Z,24.34
2019-05-07T02:25:46.112Z,24.36
2019-05-07T02:26:46.094Z,24.37
2019-05-07T02:27:46.101Z,24.46
2019-05-07T02:28:46.099Z,24.44
2019-05-07T02:29:46.056Z,24.45
2019-05-07T02:30:46.068Z,24.46
2019-05-07T02:31:46.060Z,24.46
2019-05-07T02:32:46.057Z,24.51
2019-05-07T02:33:46.058Z,24.42
2019-05-07T02:34:46.043Z,24.39
2019-05-07T02:35:46.034Z,24.41
2019-05-07T02:36:46.022Z,24.42
2019-05-07T02:37:50.876Z,24.42
2019-05-07T02:38:46.037Z,24.36
2019-05-07T02:39:46.002Z,24.31
2019-05-07T02:40:45.997Z,24.31
2019-05-07T02:41:46.040Z,24.34
2019-05-07T02:42:46.003Z,24.27
2019-05-07T02:43:45.995Z,24.27
2019-05-07T02:44:45.982Z,24.33
2019-05-07T02:45:45.965Z,24.27
2019-05-07T02:46:45.995Z,24.29
2019-05-07T02:47:45.944Z,24.29
2019-05-07T02:48:45.959Z,24.18
2019-05-07T02:49:45.968Z,24.19
2019-05-07T02:50:45.951Z,24.16
2019-05-07T02:51:45.953Z,24.15
2019-05-07T02:52:45.938Z,24.05
2019-05-07T02:53:45.920Z,24.05
2019-05-07T02:54:45.934Z,24.11
2019-05-07T02:55:45.922Z,24.15
2019-05-07T02:56:45.900Z,24.12
2019-05-07T02:57:45.901Z,24.14
2019-05-07T02:58:45.911Z,24.14
2019-05-07T02:59:45.897Z,23.99
2019-05-07T03:00:45.888Z,23.97
2019-05-07T03:01:45.891Z,24.04
2019-05-07T03:02:45.877Z,24.05
2019-05-07T03:03:45.867Z,24.06
2019-05-07T03:04:45.837Z,24.08
2019-05-07T03:05:45.852Z,24.08
2019-05-07T03:06:45.854Z,24.02
2019-05-07T03:07:45.842Z,23.97
2019-05-07T03:08:45.844Z,23.99
2019-05-07T03:09:45.808Z,23.99
2019-05-07T03:10:45.817Z,24.02
2019-05-07T03:11:45.829Z,24.04
2019-05-07T03:12:45.855Z,24.02
2019-05-07T03:13:45.794Z,23.93
2019-05-07T03:14:45.795Z,23.86
2019-05-07T03:15:45.811Z,23.84
2019-05-07T03:16:49.490Z,23.75
2019-05-07T03:17:45.756Z,23.82
2019-05-07T03:18:45.771Z,23.86
2019-05-07T03:19:45.782Z,23.79
2019-05-07T03:20:45.757Z,23.77
2019-05-07T03:21:45.755Z,23.71
2019-05-07T03:22:45.753Z,23.82
2019-05-07T03:23:45.727Z,23.75
2019-05-07T03:24:45.736Z,23.69
2019-05-07T03:25:45.717Z,23.72
2019-05-07T03:26:45.734Z,23.74
2019-05-07T03:27:45.752Z,23.75
2019-05-07T03:28:45.747Z,23.74
2019-05-07T03:29:45.696Z,23.68
2019-05-07T03:30:46.126Z,23.63
2019-05-07T03:31:47.086Z,23.63
2019-05-07T03:32:47.548Z,23.63
2019-05-07T03:33:47.105Z,23.60
2019-05-07T03:34:47.021Z,23.62
2019-05-07T03:35:47.004Z,23.63
2019-05-07T03:36:47.503Z,23.67
2019-05-07T03:37:45.671Z,23.63
2019-05-07T03:38:45.650Z,23.57
2019-05-07T03:39:45.605Z,23.59
2019-05-07T03:40:45.632Z,23.62
2019-05-07T03:41:45.618Z,23.53
2019-05-07T03:42:45.618Z,23.64
2019-05-07T03:43:45.601Z,23.50
2019-05-07T03:44:45.595Z,23.50
2019-05-07T03:45:45.568Z,23.50
2019-05-07T03:47:01.338Z,23.45
2019-05-07T03:47:45.547Z,23.49
2019-05-07T03:48:45.617Z,23.45
2019-05-07T03:49:45.572Z,23.50
2019-05-07T03:50:45.606Z,23.59
2019-05-07T03:51:45.555Z,23.57
2019-05-07T03:52:45.525Z,23.54
2019-05-07T03:53:45.539Z,23.44
2019-05-07T03:54:45.512Z,23.45
2019-05-07T03:55:45.509Z,23.47
2019-05-07T03:56:45.519Z,23.49
2019-05-07T03:57:45.493Z,23.49
2019-05-07T03:58:45.502Z,23.45
2019-05-07T03:59:45.484Z,23.39
2019-05-07T04:00:45.495Z,23.44
2019-05-07T04:01:45.457Z,23.41
2019-05-07T04:02:45.483Z,23.49
2019-05-07T04:03:45.468Z,23.41
2019-05-07T04:04:45.496Z,23.35
2019-05-07T04:05:45.504Z,23.38
2019-05-07T04:06:45.452Z,23.44
2019-05-07T04:07:45.482Z,23.44
2019-05-07T04:08:45.423Z,23.52
2019-05-07T04:09:45.415Z,23.42
2019-05-07T04:10:45.458Z,23.42
2019-05-07T04:11:45.389Z,23.38
2019-05-07T04:12:45.387Z,23.35
2019-05-07T04:13:45.385Z,23.41
2019-05-07T04:14:45.365Z,23.29
2019-05-07T04:15:45.427Z,23.31
2019-05-07T04:16:45.390Z,23.31
2019-05-07T04:17:45.355Z,23.37
2019-05-07T04:18:45.362Z,23.22
2019-05-07T04:19:45.355Z,23.25
2019-05-07T04:20:45.401Z,23.23
2019-05-07T04:21:45.339Z,23.12
2019-05-07T04:22:45.332Z,23.18
2019-05-07T04:23:45.307Z,23.15
2019-05-07T04:24:45.360Z,23.23
2019-05-07T04:25:45.363Z,23.21
2019-05-07T04:26:45.292Z,23.12
2019-05-07T04:27:47.160Z,23.14
2019-05-07T04:28:45.303Z,23.11
2019-05-07T04:29:45.279Z,23.11
2019-05-07T04:30:45.333Z,23.11
2019-05-07T04:31:45.271Z,23.07
2019-05-07T04:32:45.274Z,23.15
2019-05-07T04:33:45.242Z,23.11
2019-05-07T04:34:45.275Z,23.07
2019-05-07T04:35:45.270Z,22.99
2019-05-07T04:36:45.228Z,23.03
2019-05-07T04:37:45.224Z,22.93
2019-05-07T04:38:45.221Z,22.96
2019-05-07T04:39:45.207Z,22.82
2019-05-07T04:40:45.302Z,22.88
2019-05-07T04:41:45.198Z,22.78
2019-05-07T04:42:45.218Z,22.82
2019-05-07T04:43:45.202Z,22.81
2019-05-07T04:44:45.161Z,22.70
2019-05-07T04:45:45.219Z,22.74
2019-05-07T04:46:48.269Z,22.63
2019-05-07T04:47:47.752Z,22.66
2019-05-07T04:48:45.151Z,22.74
2019-05-07T04:49:45.139Z,22.72
2019-05-07T04:50:47.948Z,22.64
2019-05-07T04:51:45.130Z,22.63
2019-05-07T04:52:45.109Z,22.57
2019-05-07T04:53:45.105Z,22.61
2019-05-07T04:54:45.106Z,22.61
2019-05-07T04:55:45.071Z,22.60
2019-05-07T04:56:45.106Z,22.54
2019-05-07T04:57:45.071Z,22.46
2019-05-07T04:58:45.074Z,22.56
2019-05-07T04:59:45.065Z,22.52
2019-05-07T05:00:45.042Z,22.48
2019-05-07T05:01:45.094Z,22.44
2019-05-07T05:02:45.048Z,22.31
2019-05-07T05:03:45.053Z,22.29
2019-05-07T05:04:45.028Z,22.39
2019-05-07T05:05:44.995Z,22.35
2019-05-07T05:06:45.010Z,22.26
2019-05-07T05:07:45.013Z,22.12
2019-05-07T05:08:44.995Z,22.14
2019-05-07T05:09:44.979Z,22.14
2019-05-07T05:10:44.957Z,22.26
2019-05-07T05:11:45.009Z,22.30
2019-05-07T05:12:45.010Z,22.29
2019-05-07T05:13:45.050Z,22.27
2019-05-07T05:14:44.982Z,22.26
2019-05-07T05:15:44.936Z,22.27
2019-05-07T05:16:44.926Z,22.24
2019-05-07T05:17:50.021Z,22.23
2019-05-07T05:18:44.916Z,22.31
2019-05-07T05:19:44.917Z,22.29
2019-05-07T05:20:44.910Z,22.31
2019-05-07T05:21:44.888Z,22.42
2019-05-07T05:22:44.874Z,22.38
2019-05-07T05:23:44.897Z,22.41
2019-05-07T05:24:44.876Z,22.38
2019-05-07T05:25:44.854Z,22.41
2019-05-07T05:26:44.859Z,22.39
2019-05-07T05:27:44.851Z,22.36
2019-05-07T05:28:44.849Z,22.41
2019-05-07T05:29:44.842Z,22.38
2019-05-07T05:30:44.810Z,22.33
2019-05-07T05:31:44.817Z,22.26
2019-05-07T05:32:44.822Z,22.31
2019-05-07T05:33:44.831Z,22.29
2019-05-07T05:34:44.798Z,22.27
2019-05-07T05:35:44.795Z,22.24
2019-05-07T05:36:44.785Z,22.29
2019-05-07T05:37:44.787Z,22.29
2019-05-07T05:38:44.766Z,22.29
2019-05-07T05:39:44.766Z,22.31
2019-05-07T05:40:44.727Z,22.38
2019-05-07T05:41:44.756Z,22.26
2019-05-07T05:42:44.740Z,22.19
2019-05-07T05:43:44.728Z,22.23
2019-05-07T05:44:44.735Z,22.30
2019-05-07T05:45:44.719Z,22.21
2019-05-07T05:46:44.702Z,22.27
2019-05-07T05:47:44.973Z,22.30
2019-05-07T05:48:44.679Z,22.24
2019-05-07T05:49:44.683Z,22.31
2019-05-07T05:50:44.680Z,22.21
2019-05-07T05:51:44.655Z,22.15
2019-05-07T05:52:44.645Z,22.11
2019-05-07T05:53:44.649Z,22.11
2019-05-07T05:54:44.632Z,22.15
2019-05-07T05:55:44.619Z,22.17
2019-05-07T05:56:44.608Z,22.20
2019-05-07T05:57:44.655Z,22.23
2019-05-07T05:58:44.609Z,22.36
2019-05-07T05:59:51.297Z,22.29
2019-05-07T06:00:44.609Z,22.26
2019-05-07T06:01:44.582Z,22.11
2019-05-07T06:02:44.560Z,22.20
2019-05-07T06:03:44.585Z,22.27
2019-05-07T06:04:44.563Z,22.29
2019-05-07T06:05:44.538Z,22.17
2019-05-07T06:06:44.555Z,22.20
2019-05-07T06:07:44.521Z,22.27
2019-05-07T06:08:44.578Z,22.24
2019-05-07T06:09:44.527Z,22.15
2019-05-07T06:10:44.515Z,22.19
2019-05-07T06:11:44.522Z,22.15
2019-05-07T06:12:44.493Z,22.17
2019-05-07T06:13:44.544Z,22.14
2019-05-07T06:14:44.471Z,22.14
2019-05-07T06:15:44.473Z,22.17
2019-05-07T06:16:44.485Z,22.12
2019-05-07T06:17:44.464Z,22.12
2019-05-07T06:18:44.454Z,22.15
2019-05-07T06:19:44.435Z,22.14
2019-05-07T06:20:44.440Z,22.06
2019-05-07T06:21:44.425Z,22.19
2019-05-07T06:22:44.435Z,22.11
2019-05-07T06:23:44.403Z,22.15
2019-05-07T06:24:44.405Z,22.15
2019-05-07T06:25:44.400Z,22.20
2019-05-07T06:26:44.370Z,22.14
2019-05-07T06:27:44.539Z,22.09
2019-05-07T06:28:44.364Z,22.04
2019-05-07T06:29:44.376Z,22.02
2019-05-07T06:30:44.375Z,22.05
2019-05-07T06:31:44.364Z,22.06
2019-05-07T06:32:44.310Z,22.06
2019-05-07T06:33:44.335Z,22.04
2019-05-07T06:34:44.786Z,22.02
2019-05-07T06:35:44.322Z,22.02
2019-05-07T06:36:44.306Z,22.04
2019-05-07T06:37:44.303Z,22.02
2019-05-07T06:38:44.298Z,22.01
2019-05-07T06:39:44.284Z,22.08
2019-05-07T06:40:44.294Z,22.09
2019-05-07T06:41:44.321Z,22.11
2019-05-07T06:42:44.256Z,22.08
2019-05-07T06:43:44.293Z,22.08
2019-05-07T06:44:44.258Z,22.06
2019-05-07T06:45:44.230Z,22.12
2019-05-07T06:46:44.276Z,22.09
2019-05-07T06:47:44.231Z,22.02
2019-05-07T06:48:46.178Z,22.04
2019-05-07T06:49:44.221Z,21.98
2019-05-07T06:50:44.187Z,21.98
2019-05-07T06:51:44.194Z,21.96
2019-05-07T06:52:44.190Z,22.05
2019-05-07T06:53:44.164Z,22.06
2019-05-07T06:54:44.180Z,22.08
2019-05-07T06:55:44.174Z,22.06
2019-05-07T06:56:44.190Z,22.02
2019-05-07T06:57:44.147Z,22.15
2019-05-07T06:58:44.181Z,22.04
2019-05-07T06:59:44.140Z,22.02
2019-05-07T07:00:44.100Z,22.11
2019-05-07T07:01:44.112Z,22.08
2019-05-07T07:02:44.082Z,22.08
2019-05-07T07:03:44.105Z,22.02
2019-05-07T07:04:44.080Z,22.09
2019-05-07T07:05:44.090Z,21.99
2019-05-07T07:06:44.060Z,22.09
2019-05-07T07:07:44.072Z,22.20
2019-05-07T07:08:44.070Z,22.17
2019-05-07T07:09:44.048Z,22.15
2019-05-07T07:10:44.065Z,22.11
2019-05-07T07:11:44.057Z,22.14
2019-05-07T07:12:44.050Z,22.05
2019-05-07T07:13:44.021Z,22.15
2019-05-07T07:14:44.029Z,22.04
2019-05-07T07:15:44.005Z,22.02
2019-05-07T07:16:43.991Z,22.09
2019-05-07T07:17:43.991Z,22.14
2019-05-07T07:18:51.912Z,22.15
2019-05-07T07:19:43.986Z,22.06
2019-05-07T07:20:43.962Z,22.08
2019-05-07T07:21:43.961Z,22.14
2019-05-07T07:22:43.931Z,22.08
2019-05-07T07:23:43.947Z,21.99
2019-05-07T07:24:43.924Z,22.06
2019-05-07T07:25:43.913Z,22.01
2019-05-07T07:26:43.920Z,22.09
2019-05-07T07:27:43.923Z,22.02
2019-05-07T07:28:43.915Z,22.09
2019-05-07T07:29:45.036Z,22.05
2019-05-07T07:30:43.896Z,21.98
2019-05-07T07:31:43.883Z,22.11
2019-05-07T07:32:43.868Z,22.09
2019-05-07T07:33:43.853Z,22.05
2019-05-07T07:34:43.848Z,22.12
2019-05-07T07:35:43.861Z,22.15
2019-05-07T07:36:43.850Z,22.17
2019-05-07T07:37:43.826Z,22.09
2019-05-07T07:38:43.816Z,22.08
2019-05-07T07:39:43.855Z,22.11
2019-05-07T07:40:43.802Z,22.14
2019-05-07T07:41:43.812Z,22.20
2019-05-07T07:42:43.781Z,22.12
2019-05-07T07:43:43.793Z,22.05
2019-05-07T07:44:43.773Z,22.11
2019-05-07T07:45:43.769Z,22.11
2019-05-07T07:46:43.760Z,22.02
2019-05-07T07:47:43.767Z,22.09
2019-05-07T07:48:43.746Z,21.98
2019-05-07T07:49:43.726Z,22.02
2019-05-07T07:50:43.713Z,21.96
2019-05-07T07:51:45.634Z,21.93
2019-05-07T07:52:43.758Z,21.90
2019-05-07T07:53:43.700Z,21.91
2019-05-07T07:54:43.714Z,21.93
2019-05-07T07:55:43.682Z,21.86
2019-05-07T07:56:52.756Z,21.89
2019-05-07T07:57:43.674Z,21.85
2019-05-07T07:58:43.664Z,21.81
2019-05-07T07:59:43.672Z,21.71
2019-05-07T08:00:43.651Z,21.68
2019-05-07T08:01:43.638Z,21.68
2019-05-07T08:02:43.639Z,21.67
2019-05-07T08:03:43.638Z,21.58
2019-05-07T08:04:43.620Z,21.67
2019-05-07T08:05:43.610Z,21.68
2019-05-07T08:06:43.624Z,21.66
2019-05-07T08:07:43.583Z,21.68
2019-05-07T08:08:43.611Z,21.67
2019-05-07T08:09:43.569Z,21.66
2019-05-07T08:10:43.542Z,21.63
2019-05-07T08:11:43.555Z,21.67
2019-05-07T08:12:43.556Z,21.63
2019-05-07T08:13:43.581Z,21.64
2019-05-07T08:14:43.566Z,21.67
2019-05-07T08:15:43.508Z,21.64
2019-05-07T08:16:43.519Z,21.67
2019-05-07T08:17:43.507Z,21.66
2019-05-07T08:18:43.754Z,21.66
2019-05-07T08:19:43.546Z,21.71
2019-05-07T08:20:43.480Z,21.68
2019-05-07T08:21:43.484Z,21.67
2019-05-07T08:22:43.480Z,21.67
2019-05-07T08:23:43.472Z,21.73
2019-05-07T08:24:43.451Z,21.64
2019-05-07T08:25:43.472Z,21.71
2019-05-07T08:26:43.418Z,21.71
2019-05-07T08:27:43.421Z,21.67
2019-05-07T08:28:43.436Z,21.55
2019-05-07T08:29:43.419Z,21.55
2019-05-07T08:30:43.420Z,21.56
2019-05-07T08:31:43.412Z,21.55
2019-05-07T08:32:43.406Z,21.63
2019-05-07T08:33:43.386Z,21.66
2019-05-07T08:34:43.374Z,21.66
2019-05-07T08:35:43.364Z,21.70
2019-05-07T08:36:43.359Z,21.52
2019-05-07T08:37:43.358Z,21.58
2019-05-07T08:38:43.329Z,21.53
2019-05-07T08:39:43.376Z,21.53
2019-05-07T08:40:43.321Z,21.52
2019-05-07T08:41:43.312Z,21.49
2019-05-07T08:42:43.325Z,21.55
2019-05-07T08:43:43.293Z,21.59
2019-05-07T08:44:43.297Z,21.66
2019-05-07T08:45:43.372Z,21.63
2019-05-07T08:46:43.264Z,21.73
2019-05-07T08:47:43.259Z,21.66
2019-05-07T08:48:43.239Z,21.66
2019-05-07T08:49:43.589Z,21.71
2019-05-07T08:50:43.262Z,21.77
2019-05-07T08:51:43.234Z,21.81
2019-05-07T08:52:43.213Z,21.74
2019-05-07T08:53:43.196Z,21.74
2019-05-07T08:54:43.211Z,21.74
2019-05-07T08:55:43.203Z,21.82
2019-05-07T08:56:43.252Z,21.90
2019-05-07T08:57:45.812Z,21.82
2019-05-07T08:58:43.162Z,21.75
2019-05-07T08:59:57.191Z,21.81
2019-05-07T09:00:43.146Z,21.79
2019-05-07T09:01:43.446Z,21.79
2019-05-07T09:02:43.144Z,21.64
2019-05-07T09:03:43.310Z,21.64
2019-05-07T09:04:43.138Z,21.59
2019-05-07T09:05:43.140Z,21.66
2019-05-07T09:06:43.233Z,21.66
2019-05-07T09:07:43.102Z,21.63
2019-05-07T09:08:43.658Z,21.75
2019-05-07T09:09:43.104Z,21.67
2019-05-07T09:10:43.092Z,21.67
2019-05-07T09:11:43.069Z,21.64
2019-05-07T09:12:43.088Z,21.66
2019-05-07T09:13:43.055Z,21.59
2019-05-07T09:14:43.097Z,21.64
2019-05-07T09:15:43.051Z,21.61
2019-05-07T09:16:43.031Z,21.64
2019-05-07T09:17:43.024Z,21.59
2019-05-07T09:18:43.022Z,21.61
2019-05-07T09:19:50.870Z,21.66
2019-05-07T09:20:42.993Z,21.64
2019-05-07T09:21:43.108Z,21.67
2019-05-07T09:22:43.019Z,21.63
2019-05-07T09:23:42.967Z,21.67
2019-05-07T09:24:42.965Z,21.74
2019-05-07T09:25:42.946Z,21.73
2019-05-07T09:26:42.966Z,21.79
2019-05-07T09:27:42.919Z,21.86
2019-05-07T09:28:42.945Z,21.79
2019-05-07T09:29:42.921Z,21.77
2019-05-07T09:30:42.925Z,21.81
2019-05-07T09:31:42.895Z,21.82
2019-05-07T09:32:42.914Z,21.85
2019-05-07T09:33:42.895Z,21.74
2019-05-07T09:34:42.899Z,21.74
2019-05-07T09:35:42.879Z,21.81
2019-05-07T09:36:42.929Z,21.83
2019-05-07T09:37:42.885Z,21.90
2019-05-07T09:38:55.213Z,21.91
2019-05-07T09:39:42.845Z,21.81
2019-05-07T09:40:42.846Z,21.85
2019-05-07T09:41:42.823Z,21.81
2019-05-07T09:42:42.834Z,21.91
2019-05-07T09:43:42.807Z,21.90
2019-05-07T09:44:42.799Z,21.89
2019-05-07T09:45:42.780Z,21.93
2019-05-07T09:46:43.931Z,22.01
2019-05-07T09:47:42.802Z,22.08
2019-05-07T09:48:42.790Z,22.01
2019-05-07T09:49:42.793Z,21.96
2019-05-07T09:50:42.913Z,21.98
2019-05-07T09:51:42.809Z,21.96
2019-05-07T09:52:42.845Z,21.96
2019-05-07T09:53:42.780Z,21.90
2019-05-07T09:54:42.944Z,21.89
2019-05-07T09:55:42.758Z,21.75
2019-05-07T09:56:42.755Z,21.86
2019-05-07T09:57:42.711Z,21.86
2019-05-07T09:58:42.745Z,21.85
2019-05-07T09:59:42.706Z,21.77
2019-05-07T10:00:42.698Z,21.81
2019-05-07T10:01:42.670Z,21.83
2019-05-07T10:02:42.705Z,21.89
2019-05-07T10:03:43.017Z,21.83
2019-05-07T10:04:42.634Z,21.79
2019-05-07T10:05:42.947Z,21.86
2019-05-07T10:06:42.636Z,21.86
2019-05-07T10:07:42.608Z,21.89
2019-05-07T10:08:42.667Z,21.96
2019-05-07T10:09:42.729Z,21.93
2019-05-07T10:10:42.642Z,22.02
2019-05-07T10:11:42.593Z,22.08
2019-05-07T10:12:42.590Z,22.04
2019-05-07T10:13:42.586Z,21.98
2019-05-07T10:14:42.574Z,21.91
2019-05-07T10:15:42.558Z,21.94
2019-05-07T10:16:42.563Z,21.98
2019-05-07T10:17:42.544Z,22.04
2019-05-07T10:18:42.743Z,22.04
2019-05-07T10:19:42.519Z,21.99
2019-05-07T10:20:42.520Z,22.02
2019-05-07T10:21:42.591Z,21.99
2019-05-07T10:22:42.837Z,22.04
2019-05-07T10:23:42.540Z,22.15
2019-05-07T10:24:42.511Z,22.04
2019-05-07T10:25:42.470Z,22.01
2019-05-07T10:26:42.852Z,22.06
2019-05-07T10:27:42.485Z,22.02
2019-05-07T10:28:42.570Z,22.06
2019-05-07T10:29:42.802Z,22.08
2019-05-07T10:30:42.783Z,22.14
2019-05-07T10:31:42.508Z,22.08
2019-05-07T10:32:42.454Z,21.99
2019-05-07T10:33:42.419Z,22.02
2019-05-07T10:34:42.421Z,22.04
2019-05-07T10:35:43.466Z,22.02
2019-05-07T10:36:42.385Z,22.01
2019-05-07T10:37:42.507Z,22.06
2019-05-07T10:38:42.381Z,22.02
2019-05-07T10:39:43.016Z,22.06
2019-05-07T10:40:42.364Z,22.11
2019-05-07T10:41:42.569Z,22.17
2019-05-07T10:42:43.022Z,22.20
2019-05-07T10:43:42.872Z,22.15
2019-05-07T10:44:43.277Z,22.15
2019-05-07T10:45:42.334Z,22.14
2019-05-07T10:46:42.355Z,22.12
2019-05-07T10:47:42.347Z,22.01
2019-05-07T10:48:42.354Z,21.99
2019-05-07T10:49:42.313Z,22.05
2019-05-07T10:50:42.519Z,22.08
2019-05-07T10:51:42.563Z,22.08
2019-05-07T10:52:42.488Z,22.11
2019-05-07T10:53:42.525Z,22.11
2019-05-07T10:54:42.274Z,22.19
2019-05-07T10:55:45.256Z,22.15
2019-05-07T10:56:42.234Z,22.12
2019-05-07T10:57:42.370Z,22.14
2019-05-07T10:58:42.218Z,22.17
2019-05-07T10:59:42.303Z,22.21
2019-05-07T11:00:42.248Z,22.19
2019-05-07T11:01:42.539Z,22.19
2019-05-07T11:02:42.597Z,22.09
2019-05-07T11:03:42.188Z,22.23
2019-05-07T11:04:43.586Z,22.19
2019-05-07T11:05:42.163Z,22.14
2019-05-07T11:06:42.168Z,22.26
2019-05-07T11:07:42.324Z,22.20
2019-05-07T11:08:42.867Z,22.31
2019-05-07T11:09:42.133Z,22.30
2019-05-07T11:10:42.184Z,22.29
2019-05-07T11:11:42.322Z,22.20
2019-05-07T11:12:42.492Z,22.26
2019-05-07T11:13:42.284Z,22.29
2019-05-07T11:14:42.167Z,22.26
2019-05-07T11:15:42.897Z,22.26
2019-05-07T11:16:43.046Z,22.29
2019-05-07T11:17:42.059Z,22.26
2019-05-07T11:18:42.627Z,22.27
2019-05-07T11:19:42.076Z,22.39
2019-05-07T11:20:49.687Z,22.29
2019-05-07T11:21:42.033Z,22.30
2019-05-07T11:22:42.871Z,22.29
2019-05-07T11:23:42.042Z,22.26
2019-05-07T11:24:42.700Z,22.27
2019-05-07T11:25:42.163Z,22.33
2019-05-07T11:26:42.102Z,22.35
2019-05-07T11:27:42.212Z,22.36
2019-05-07T11:28:41.982Z,22.38
2019-05-07T11:29:42.960Z,22.45
2019-05-07T11:30:42.513Z,22.49
2019-05-07T11:31:42.486Z,22.51
2019-05-07T11:32:42.970Z,22.59
2019-05-07T11:33:41.949Z,22.52
2019-05-07T11:34:42.213Z,22.46
2019-05-07T11:35:42.320Z,22.52
2019-05-07T11:36:42.956Z,22.54
2019-05-07T11:37:44.113Z,22.46
2019-05-07T11:38:44.550Z,22.48
2019-05-07T11:39:42.765Z,22.49
2019-05-07T11:40:42.671Z,22.49
2019-05-07T11:41:42.271Z,22.41
2019-05-07T11:42:42.669Z,22.44
2019-05-07T11:43:41.893Z,22.44
2019-05-07T11:44:42.396Z,22.39
2019-05-07T11:45:41.850Z,22.35
2019-05-07T11:46:44.410Z,22.41
2019-05-07T11:47:41.869Z,22.36
2019-05-07T11:48:42.614Z,22.36
2019-05-07T11:49:41.849Z,22.39
2019-05-07T11:50:42.247Z,22.33
2019-05-07T11:51:42.591Z,22.35
2019-05-07T11:52:42.523Z,22.41
2019-05-07T11:53:41.922Z,22.38
2019-05-07T11:54:42.181Z,22.31
2019-05-07T11:55:42.146Z,22.27
2019-05-07T11:56:42.207Z,22.27
2019-05-07T11:57:44.216Z,22.27
2019-05-07T11:58:41.759Z,22.30
2019-05-07T11:59:41.858Z,22.42
2019-05-07T12:00:42.654Z,22.41
2019-05-07T12:01:46.921Z,22.42
2019-05-07T12:02:42.364Z,22.33
2019-05-07T12:03:42.910Z,22.38
2019-05-07T12:04:42.211Z,22.51
2019-05-07T12:05:42.241Z,22.54
2019-05-07T12:06:41.711Z,22.49
2019-05-07T12:07:41.933Z,22.51
2019-05-07T12:08:48.229Z,22.49
2019-05-07T12:09:41.689Z,22.41
2019-05-07T12:10:42.074Z,22.49
2019-05-07T12:11:42.574Z,22.46
2019-05-07T12:12:41.661Z,22.56
2019-05-07T12:13:42.748Z,22.52
2019-05-07T12:14:41.661Z,22.56
2019-05-07T12:15:42.871Z,22.56
2019-05-07T12:16:42.632Z,22.44
2019-05-07T12:17:42.923Z,22.54
2019-05-07T12:18:43.075Z,22.56
2019-05-07T12:19:43.746Z,22.49
2019-05-07T12:20:41.638Z,22.54
2019-05-07T12:21:42.300Z,22.52
2019-05-07T12:22:42.447Z,22.63
2019-05-07T12:23:42.213Z,22.54
2019-05-07T12:24:41.927Z,22.59
2019-05-07T12:25:42.368Z,22.60
2019-05-07T12:26:41.960Z,22.60
2019-05-07T12:27:41.547Z,22.60
2019-05-07T12:28:41.863Z,22.57
2019-05-07T12:29:42.372Z,22.66
2019-05-07T12:30:42.837Z,22.63
2019-05-07T12:31:41.670Z,22.63
2019-05-07T12:32:42.744Z,22.66
2019-05-07T12:33:42.810Z,22.67
2019-05-07T12:34:42.369Z,22.66
2019-05-07T12:35:42.086Z,22.67
2019-05-07T12:36:41.479Z,22.61
2019-05-07T12:37:42.776Z,22.66
2019-05-07T12:38:41.699Z,22.69
2019-05-07T12:39:42.322Z,22.74
2019-05-07T12:40:41.925Z,22.59
2019-05-07T12:41:41.893Z,22.60
2019-05-07T12:42:42.434Z,22.63
2019-05-07T12:43:42.365Z,22.64
2019-05-07T12:44:42.471Z,22.66
2019-05-07T12:45:42.142Z,22.66
2019-05-07T12:46:42.332Z,22.63
2019-05-07T12:47:42.208Z,22.74
2019-05-07T12:48:41.391Z,22.66
2019-05-07T12:49:42.894Z,22.63
2019-05-07T12:50:43.042Z,22.75
2019-05-07T12:51:42.678Z,22.74
2019-05-07T12:52:42.467Z,22.56